sensor_id;sensor_type;location;lat;lon;timestamp;pressure;altitude;pressure_sealevel;temperature;humidity
14293;BME280;62290;59.420;17.842;2023-02-23T00:01:39;101424.59;;;25.15;15.90
14293;BME280;62290;59.420;17.842;2023-02-23T00:04:07;101415.38;;;25.17;16.08
14293;BME280;62290;59.420;17.842;2023-02-23T00:06:36;101410.09;;;25.16;16.04
14293;BME280;62290;59.420;17.842;2023-02-23T00:09:05;101412.69;;;25.17;15.89
14293;BME280;62290;59.420;17.842;2023-02-23T00:11:48;101401.91;;;25.17;16.11
14293;BME280;62290;59.420;17.842;2023-02-23T00:14:18;101405.06;;;25.23;15.91
14293;BME280;62290;59.420;17.842;2023-02-23T00:16:47;101401.41;;;25.24;15.68
14293;BME280;62290;59.420;17.842;2023-02-23T00:19:15;101399.53;;;25.24;16.09
14293;BME280;62290;59.420;17.842;2023-02-23T00:21:43;101392.19;;;25.26;15.99
14293;BME280;62290;59.420;17.842;2023-02-23T00:24:13;101393.78;;;25.29;16.16
14293;BME280;62290;59.420;17.842;2023-02-23T00:26:42;101390.94;;;25.30;15.70
14293;BME280;62290;59.420;17.842;2023-02-23T00:29:13;101385.53;;;25.30;15.76
14293;BME280;62290;59.420;17.842;2023-02-23T00:31:44;101388.09;;;25.32;16.09
14293;BME280;62290;59.420;17.842;2023-02-23T00:34:14;101387.13;;;25.33;15.69
14293;BME280;62290;59.420;17.842;2023-02-23T00:36:42;101377.31;;;25.32;16.00
14293;BME280;62290;59.420;17.842;2023-02-23T00:39:12;101379.28;;;25.30;15.92
14293;BME280;62290;59.420;17.842;2023-02-23T00:41:47;101376.59;;;25.30;15.94
14293;BME280;62290;59.420;17.842;2023-02-23T00:44:15;101368.03;;;25.25;15.82
14293;BME280;62290;59.420;17.842;2023-02-23T00:46:45;101337.19;;;25.06;16.00
14293;BME280;62290;59.420;17.842;2023-02-23T00:49:15;101348.72;;;25.08;15.73
14293;BME280;62290;59.420;17.842;2023-02-23T00:51:43;101365.81;;;25.18;15.87
14293;BME280;62290;59.420;17.842;2023-02-23T00:54:13;101345.03;;;25.09;15.83
14293;BME280;62290;59.420;17.842;2023-02-23T00:56:41;101358.84;;;25.16;16.10
14293;BME280;62290;59.420;17.842;2023-02-23T00:59:10;101354.31;;;25.16;15.95
14293;BME280;62290;59.420;17.842;2023-02-23T01:01:39;101351.63;;;25.16;16.18
14293;BME280;62290;59.420;17.842;2023-02-23T01:04:11;101349.06;;;25.15;15.75
14293;BME280;62290;59.420;17.842;2023-02-23T01:06:40;101349.06;;;25.15;16.07
14293;BME280;62290;59.420;17.842;2023-02-23T01:09:10;101345.50;;;25.14;15.99
14293;BME280;62290;59.420;17.842;2023-02-23T01:11:39;101339.19;;;25.04;16.24
14293;BME280;62290;59.420;17.842;2023-02-23T01:14:09;101339.38;;;25.12;15.99
14293;BME280;62290;59.420;17.842;2023-02-23T01:16:39;101335.97;;;25.10;15.91
14293;BME280;62290;59.420;17.842;2023-02-23T01:19:10;101302.47;;;24.92;16.06
14293;BME280;62290;59.420;17.842;2023-02-23T01:21:41;101324.31;;;25.10;15.80
14293;BME280;62290;59.420;17.842;2023-02-23T01:24:11;101322.75;;;25.07;16.10
14293;BME280;62290;59.420;17.842;2023-02-23T01:26:41;101317.47;;;25.06;15.98
14293;BME280;62290;59.420;17.842;2023-02-23T01:29:12;101319.31;;;25.05;15.84
14293;BME280;62290;59.420;17.842;2023-02-23T01:31:42;101314.91;;;25.04;15.97
14293;BME280;62290;59.420;17.842;2023-02-23T01:34:16;101311.34;;;25.04;16.33
14293;BME280;62290;59.420;17.842;2023-02-23T01:36:45;101314.03;;;25.04;16.26
14293;BME280;62290;59.420;17.842;2023-02-23T01:39:15;101302.38;;;25.03;16.26
14293;BME280;62290;59.420;17.842;2023-02-23T01:41:44;101309.63;;;25.03;16.18
14293;BME280;62290;59.420;17.842;2023-02-23T01:47:18;101291.13;;;24.98;16.59
14293;BME280;62290;59.420;17.842;2023-02-23T01:49:48;101292.88;;;24.99;16.41
14293;BME280;62290;59.420;17.842;2023-02-23T01:52:18;101289.31;;;24.99;16.46
14293;BME280;62290;59.420;17.842;2023-02-23T01:54:49;101282.78;;;25.01;16.69
14293;BME280;62290;59.420;17.842;2023-02-23T01:57:21;101274.56;;;25.03;16.57
14293;BME280;62290;59.420;17.842;2023-02-23T01:59:52;101274.44;;;25.04;16.41
14293;BME280;62290;59.420;17.842;2023-02-23T02:02:23;101273.34;;;25.07;16.54
14293;BME280;62290;59.420;17.842;2023-02-23T02:05:00;101273.47;;;25.05;16.44
14293;BME280;62290;59.420;17.842;2023-02-23T02:07:31;101268.91;;;25.06;16.44
14293;BME280;62290;59.420;17.842;2023-02-23T02:10:01;101262.94;;;25.02;16.83
14293;BME280;62290;59.420;17.842;2023-02-23T02:13:06;101244.19;;;25.01;16.80
14293;BME280;62290;59.420;17.842;2023-02-23T02:15:42;101246.88;;;25.01;17.02
14293;BME280;62290;59.420;17.842;2023-02-23T02:18:27;101248.84;;;24.99;16.56
14293;BME280;62290;59.420;17.842;2023-02-23T02:21:25;101238.31;;;24.96;16.84
14293;BME280;62290;59.420;17.842;2023-02-23T02:24:31;101242.13;;;24.93;17.01
14293;BME280;62290;59.420;17.842;2023-02-23T02:27:12;101237.75;;;24.92;17.06
14293;BME280;62290;59.420;17.842;2023-02-23T02:30:17;101232.63;;;24.89;17.29
14293;BME280;62290;59.420;17.842;2023-02-23T02:33:14;101231.75;;;24.89;17.12
14293;BME280;62290;59.420;17.842;2023-02-23T02:36:06;101234.44;;;24.89;17.26
14293;BME280;62290;59.420;17.842;2023-02-23T02:38:48;101224.53;;;24.89;17.40
14293;BME280;62290;59.420;17.842;2023-02-23T02:41:27;101224.63;;;24.88;17.01
14293;BME280;62290;59.420;17.842;2023-02-23T02:44:05;101215.69;;;24.87;17.08
14293;BME280;62290;59.420;17.842;2023-02-23T02:46:39;101202.22;;;24.87;17.42
14293;BME280;62290;59.420;17.842;2023-02-23T02:49:14;101202.22;;;24.87;17.30
14293;BME280;62290;59.420;17.842;2023-02-23T02:51:46;101198.53;;;24.88;17.36
14293;BME280;62290;59.420;17.842;2023-02-23T02:54:24;101198.69;;;24.87;17.58
14293;BME280;62290;59.420;17.842;2023-02-23T02:56:57;101189.59;;;24.88;17.25
14293;BME280;62290;59.420;17.842;2023-02-23T02:59:27;101166.47;;;24.74;17.34
14293;BME280;62290;59.420;17.842;2023-02-23T03:02:15;101191.72;;;24.84;17.50
14293;BME280;62290;59.420;17.842;2023-02-23T03:05:02;101184.75;;;24.82;17.66
14293;BME280;62290;59.420;17.842;2023-02-23T03:07:52;101182.75;;;24.84;17.78
14293;BME280;62290;59.420;17.842;2023-02-23T03:10:48;101179.34;;;24.82;17.86
14293;BME280;62290;59.420;17.842;2023-02-23T03:13:45;101174.78;;;24.82;17.61
14293;BME280;62290;59.420;17.842;2023-02-23T03:16:38;101172.09;;;24.82;17.95
14293;BME280;62290;59.420;17.842;2023-02-23T03:19:29;101167.81;;;24.80;17.82
14293;BME280;62290;59.420;17.842;2023-02-23T03:22:20;101165.97;;;24.80;17.65
14293;BME280;62290;59.420;17.842;2023-02-23T03:25:09;101159.72;;;24.80;17.65
14293;BME280;62290;59.420;17.842;2023-02-23T03:28:05;101160.72;;;24.79;17.57
14293;BME280;62290;59.420;17.842;2023-02-23T03:31:03;101158.91;;;24.79;17.98
14293;BME280;62290;59.420;17.842;2023-02-23T03:33:56;101151.78;;;24.78;17.84
14293;BME280;62290;59.420;17.842;2023-02-23T03:36:47;101137.47;;;24.67;17.78
14293;BME280;62290;59.420;17.842;2023-02-23T03:39:38;101146.41;;;24.78;17.78
14293;BME280;62290;59.420;17.842;2023-02-23T03:42:27;101133.84;;;24.77;17.85
14293;BME280;62290;59.420;17.842;2023-02-23T03:45:18;101132.91;;;24.78;17.72
14293;BME280;62290;59.420;17.842;2023-02-23T03:48:08;101131.16;;;24.77;17.81
14293;BME280;62290;59.420;17.842;2023-02-23T03:50:57;101131.31;;;24.76;18.07
14293;BME280;62290;59.420;17.842;2023-02-23T03:53:50;101125.91;;;24.76;17.91
14293;BME280;62290;59.420;17.842;2023-02-23T03:56:40;101121.50;;;24.75;18.13
14293;BME280;62290;59.420;17.842;2023-02-23T03:59:31;101120.94;;;24.71;17.95
14293;BME280;62290;59.420;17.842;2023-02-23T04:02:20;101120.63;;;24.74;17.98
14293;BME280;62290;59.420;17.842;2023-02-23T04:05:15;101085.22;;;24.58;17.89
14293;BME280;62290;59.420;17.842;2023-02-23T04:08:03;101115.25;;;24.74;18.08
14293;BME280;62290;59.420;17.842;2023-02-23T04:10:57;101109.84;;;24.74;17.96
14293;BME280;62290;59.420;17.842;2023-02-23T04:13:47;101098.34;;;24.72;18.07
14293;BME280;62290;59.420;17.842;2023-02-23T04:16:17;101107.16;;;24.74;17.95
14293;BME280;62290;59.420;17.842;2023-02-23T04:18:46;101103.38;;;24.77;17.92
14293;BME280;62290;59.420;17.842;2023-02-23T04:21:14;101096.13;;;24.77;17.89
14293;BME280;62290;59.420;17.842;2023-02-23T04:23:43;101094.28;;;24.78;17.75
14293;BME280;62290;59.420;17.842;2023-02-23T04:26:11;101085.34;;;24.77;18.18
14293;BME280;62290;59.420;17.842;2023-02-23T04:28:39;101093.41;;;24.77;18.10
14293;BME280;62290;59.420;17.842;2023-02-23T04:31:07;101089.78;;;24.78;17.93
14293;BME280;62290;59.420;17.842;2023-02-23T04:33:35;101088.81;;;24.79;17.86
14293;BME280;62290;59.420;17.842;2023-02-23T04:36:05;101088.53;;;24.82;17.99
14293;BME280;62290;59.420;17.842;2023-02-23T04:38:33;101090.50;;;24.80;17.98
14293;BME280;62290;59.420;17.842;2023-02-23T04:41:00;101079.94;;;24.77;18.11
14293;BME280;62290;59.420;17.842;2023-02-23T04:43:28;101079.72;;;24.80;18.18
14293;BME280;62290;59.420;17.842;2023-02-23T04:45:56;101070.03;;;24.78;17.99
14293;BME280;62290;59.420;17.842;2023-02-23T04:48:25;101065.63;;;24.77;17.97
14293;BME280;62290;59.420;17.842;2023-02-23T04:50:53;101061.84;;;24.79;18.11
14293;BME280;62290;59.420;17.842;2023-02-23T04:53:22;101061.72;;;24.81;18.14
14293;BME280;62290;59.420;17.842;2023-02-23T04:55:52;101048.00;;;24.73;17.77
14293;BME280;62290;59.420;17.842;2023-02-23T04:58:20;101056.69;;;24.76;18.08
14293;BME280;62290;59.420;17.842;2023-02-23T05:00:48;101054.97;;;24.75;18.11
14293;BME280;62290;59.420;17.842;2023-02-23T05:03:16;101030.00;;;24.73;18.27
14293;BME280;62290;59.420;17.842;2023-02-23T05:05:44;101046.78;;;24.77;18.19
14293;BME280;62290;59.420;17.842;2023-02-23T05:08:12;101048.59;;;24.76;18.36
14293;BME280;62290;59.420;17.842;2023-02-23T05:10:42;101051.31;;;24.76;18.27
14293;BME280;62290;59.420;17.842;2023-02-23T05:13:10;101034.28;;;24.76;18.28
14293;BME280;62290;59.420;17.842;2023-02-23T05:15:38;101031.56;;;24.76;18.58
14293;BME280;62290;59.420;17.842;2023-02-23T05:18:06;101007.53;;;24.63;18.41
14293;BME280;62290;59.420;17.842;2023-02-23T05:20:34;101028.03;;;24.75;18.35
14293;BME280;62290;59.420;17.842;2023-02-23T05:23:02;101018.38;;;24.73;18.31
14293;BME280;62290;59.420;17.842;2023-02-23T05:25:30;101023.75;;;24.73;18.09
14293;BME280;62290;59.420;17.842;2023-02-23T05:28:00;101019.22;;;24.73;18.49
14293;BME280;62290;59.420;17.842;2023-02-23T05:30:28;101022.78;;;24.74;18.42
14293;BME280;62290;59.420;17.842;2023-02-23T05:32:56;101013.84;;;24.73;18.40
14293;BME280;62290;59.420;17.842;2023-02-23T05:35:24;101005.59;;;24.75;18.58
14293;BME280;62290;59.420;17.842;2023-02-23T05:37:52;100996.78;;;24.73;18.64
14293;BME280;62290;59.420;17.842;2023-02-23T05:40:20;100995.94;;;24.72;18.42
14293;BME280;62290;59.420;17.842;2023-02-23T05:42:48;100994.25;;;24.71;18.33
14293;BME280;62290;59.420;17.842;2023-02-23T05:45:18;100987.00;;;24.72;18.27
14293;BME280;62290;59.420;17.842;2023-02-23T05:47:45;100979.78;;;24.72;18.71
14293;BME280;62290;59.420;17.842;2023-02-23T05:50:14;100984.19;;;24.73;18.44
14293;BME280;62290;59.420;17.842;2023-02-23T05:52:42;100977.78;;;24.74;18.69
14293;BME280;62290;59.420;17.842;2023-02-23T05:55:11;100976.97;;;24.74;18.62
14293;BME280;62290;59.420;17.842;2023-02-23T05:57:39;100972.53;;;24.73;18.55
14293;BME280;62290;59.420;17.842;2023-02-23T06:00:10;100965.44;;;24.72;18.62
14293;BME280;62290;59.420;17.842;2023-02-23T06:02:40;100966.03;;;24.75;18.54
14293;BME280;62290;59.420;17.842;2023-02-23T06:05:09;100958.22;;;24.72;18.30
14293;BME280;62290;59.420;17.842;2023-02-23T06:07:37;100951.97;;;24.72;18.59
14293;BME280;62290;59.420;17.842;2023-02-23T06:10:06;100959.31;;;24.70;18.59
14293;BME280;62290;59.420;17.842;2023-02-23T06:12:34;100948.69;;;24.68;18.44
14293;BME280;62290;59.420;17.842;2023-02-23T06:15:02;100950.53;;;24.68;18.60
14293;BME280;62290;59.420;17.842;2023-02-23T06:17:30;100943.56;;;24.65;18.50
14293;BME280;62290;59.420;17.842;2023-02-23T06:20:00;100936.34;;;24.66;18.54
14293;BME280;62290;59.420;17.842;2023-02-23T06:22:30;100932.78;;;24.65;18.53
14293;BME280;62290;59.420;17.842;2023-02-23T06:24:58;100930.09;;;24.65;18.48
14293;BME280;62290;59.420;17.842;2023-02-23T06:27:26;100935.50;;;24.65;18.61
14293;BME280;62290;59.420;17.842;2023-02-23T06:29:54;100929.13;;;24.66;18.61
14293;BME280;62290;59.420;17.842;2023-02-23T06:32:22;100919.47;;;24.64;18.67
14293;BME280;62290;59.420;17.842;2023-02-23T06:34:51;100922.16;;;24.64;18.59
14293;BME280;62290;59.420;17.842;2023-02-23T06:37:20;100924.72;;;24.65;18.45
14293;BME280;62290;59.420;17.842;2023-02-23T06:39:48;100923.00;;;24.64;18.65
14293;BME280;62290;59.420;17.842;2023-02-23T06:42:16;100921.31;;;24.63;18.51
14293;BME280;62290;59.420;17.842;2023-02-23T06:44:44;100921.16;;;24.65;18.64
14293;BME280;62290;59.420;17.842;2023-02-23T06:47:12;100922.72;;;24.67;18.51
14293;BME280;62290;59.420;17.842;2023-02-23T06:49:40;100914.63;;;24.67;18.48
14293;BME280;62290;59.420;17.842;2023-02-23T06:52:09;100909.25;;;24.67;18.57
14293;BME280;62290;59.420;17.842;2023-02-23T06:54:40;100907.41;;;24.68;18.51
14293;BME280;62290;59.420;17.842;2023-02-23T06:57:08;100904.00;;;24.66;18.43
14293;BME280;62290;59.420;17.842;2023-02-23T06:59:36;100906.56;;;24.67;18.74
14293;BME280;62290;59.420;17.842;2023-02-23T07:02:05;100899.47;;;24.66;18.47
14293;BME280;62290;59.420;17.842;2023-02-23T07:04:33;100902.28;;;24.65;18.79
14293;BME280;62290;59.420;17.842;2023-02-23T07:07:01;100899.75;;;24.63;18.57
14293;BME280;62290;59.420;17.842;2023-02-23T07:09:29;100861.66;;;24.47;18.83
14293;BME280;62290;59.420;17.842;2023-02-23T07:11:59;100850.91;;;24.47;18.47
14293;BME280;62290;59.420;17.842;2023-02-23T07:14:27;100881.59;;;24.65;18.79
14293;BME280;62290;59.420;17.842;2023-02-23T07:16:55;100883.31;;;24.66;18.82
14293;BME280;62290;59.420;17.842;2023-02-23T07:19:23;100877.91;;;24.66;18.68
14293;BME280;62290;59.420;17.842;2023-02-23T07:21:51;100873.34;;;24.67;18.84
14293;BME280;62290;59.420;17.842;2023-02-23T07:24:19;100875.66;;;24.71;19.02
14293;BME280;62290;59.420;17.842;2023-02-23T07:26:47;100872.09;;;24.71;19.07
14293;BME280;62290;59.420;17.842;2023-02-23T07:29:17;100869.97;;;24.74;18.64
14293;BME280;62290;59.420;17.842;2023-02-23T07:31:45;100867.28;;;24.74;18.88
14293;BME280;62290;59.420;17.842;2023-02-23T07:34:15;100867.00;;;24.77;18.64
14293;BME280;62290;59.420;17.842;2023-02-23T07:36:44;100859.78;;;24.78;19.00
14293;BME280;62290;59.420;17.842;2023-02-23T07:39:12;100866.19;;;24.77;18.96
14293;BME280;62290;59.420;17.842;2023-02-23T07:41:40;100856.38;;;24.76;18.75
14293;BME280;62290;59.420;17.842;2023-02-23T07:44:18;100860.66;;;24.78;18.90
14293;BME280;62290;59.420;17.842;2023-02-23T07:46:46;100858.91;;;24.77;18.89
14293;BME280;62290;59.420;17.842;2023-02-23T07:49:15;100865.16;;;24.78;18.98
14293;BME280;62290;59.420;17.842;2023-02-23T07:51:43;100851.97;;;24.75;18.90
14293;BME280;62290;59.420;17.842;2023-02-23T07:54:11;100847.03;;;24.80;19.09
14293;BME280;62290;59.420;17.842;2023-02-23T07:56:39;100855.13;;;24.80;19.28
14293;BME280;62290;59.420;17.842;2023-02-23T07:59:07;100853.19;;;24.82;19.06
14293;BME280;62290;59.420;17.842;2023-02-23T08:01:36;100848.34;;;24.85;19.07
14293;BME280;62290;59.420;17.842;2023-02-23T08:04:04;100846.34;;;24.87;19.08
14293;BME280;62290;59.420;17.842;2023-02-23T08:06:32;100837.97;;;24.90;19.21
14293;BME280;62290;59.420;17.842;2023-02-23T08:09:01;100836.72;;;24.94;19.34
14293;BME280;62290;59.420;17.842;2023-02-23T08:11:30;100832.75;;;24.98;19.29
14293;BME280;62290;59.420;17.842;2023-02-23T08:13:58;100826.94;;;25.03;19.65
14293;BME280;62290;59.420;17.842;2023-02-23T08:16:27;100810.75;;;25.03;19.04
14293;BME280;62290;59.420;17.842;2023-02-23T08:18:57;100823.66;;;25.18;19.41
14293;BME280;62290;59.420;17.842;2023-02-23T08:21:26;100823.28;;;25.23;19.32
14293;BME280;62290;59.420;17.842;2023-02-23T08:23:55;100823.00;;;25.26;19.05
14293;BME280;62290;59.420;17.842;2023-02-23T08:26:23;100821.00;;;25.28;19.11
14293;BME280;62290;59.420;17.842;2023-02-23T08:28:51;100818.16;;;25.30;19.83
14293;BME280;62290;59.420;17.842;2023-02-23T08:31:20;100812.03;;;25.28;20.26
14293;BME280;62290;59.420;17.842;2023-02-23T08:33:51;100808.78;;;25.24;21.29
14293;BME280;62290;59.420;17.842;2023-02-23T08:36:20;100802.56;;;25.24;22.24
14293;BME280;62290;59.420;17.842;2023-02-23T08:38:49;100796.84;;;25.27;21.78
14293;BME280;62290;59.420;17.842;2023-02-23T08:41:17;100801.25;;;25.28;21.83
14293;BME280;62290;59.420;17.842;2023-02-23T08:43:45;100794.56;;;25.32;21.19
14293;BME280;62290;59.420;17.842;2023-02-23T08:46:14;100789.91;;;25.34;20.90
14293;BME280;62290;59.420;17.842;2023-02-23T08:48:44;100788.78;;;25.36;20.83
14293;BME280;62290;59.420;17.842;2023-02-23T08:51:12;100791.03;;;25.41;20.69
14293;BME280;62290;59.420;17.842;2023-02-23T08:53:42;100789.88;;;25.43;20.37
14293;BME280;62290;59.420;17.842;2023-02-23T08:56:10;100784.66;;;25.42;20.79
14293;BME280;62290;59.420;17.842;2023-02-23T08:58:41;100781.38;;;25.48;20.27
14293;BME280;62290;59.420;17.842;2023-02-23T09:01:15;100769.16;;;25.53;20.44
14293;BME280;62290;59.420;17.842;2023-02-23T09:03:45;100760.94;;;25.55;20.25
14293;BME280;62290;59.420;17.842;2023-02-23T09:06:15;100767.72;;;25.59;20.27
14293;BME280;62290;59.420;17.842;2023-02-23T09:08:46;100770.16;;;25.62;19.98
14293;BME280;62290;59.420;17.842;2023-02-23T09:11:14;100763.72;;;25.63;19.76
14293;BME280;62290;59.420;17.842;2023-02-23T09:13:43;100766.88;;;25.68;19.58
14293;BME280;62290;59.420;17.842;2023-02-23T09:16:11;100756.06;;;25.68;19.85
14293;BME280;62290;59.420;17.842;2023-02-23T09:18:39;100751.38;;;25.70;19.81
14293;BME280;62290;59.420;17.842;2023-02-23T09:21:13;100753.91;;;25.71;19.69
14293;BME280;62290;59.420;17.842;2023-02-23T09:23:46;100740.59;;;25.70;19.91
14293;BME280;62290;59.420;17.842;2023-02-23T09:26:17;100741.44;;;25.70;19.79
14293;BME280;62290;59.420;17.842;2023-02-23T09:28:47;100742.25;;;25.71;19.51
14293;BME280;62290;59.420;17.842;2023-02-23T09:31:17;100734.03;;;25.72;19.65
14293;BME280;62290;59.420;17.842;2023-02-23T09:33:46;100723.94;;;25.74;19.37
14293;BME280;62290;59.420;17.842;2023-02-23T09:36:16;100725.50;;;25.77;19.33
14293;BME280;62290;59.420;17.842;2023-02-23T09:38:48;100717.38;;;25.77;19.32
14293;BME280;62290;59.420;17.842;2023-02-23T09:41:48;100721.06;;;25.76;19.72
14293;BME280;62290;59.420;17.842;2023-02-23T09:44:25;100720.09;;;25.77;19.18
14293;BME280;62290;59.420;17.842;2023-02-23T09:47:06;100725.19;;;25.80;19.54
14293;BME280;62290;59.420;17.842;2023-02-23T09:49:39;100713.53;;;25.80;19.43
14293;BME280;62290;59.420;17.842;2023-02-23T09:52:15;100716.94;;;25.82;19.74
14293;BME280;62290;59.420;17.842;2023-02-23T09:54:46;100713.25;;;25.83;19.52
14293;BME280;62290;59.420;17.842;2023-02-23T09:57:18;100704.16;;;25.84;19.91
14293;BME280;62290;59.420;17.842;2023-02-23T09:59:49;100705.56;;;25.88;20.01
14293;BME280;62290;59.420;17.842;2023-02-23T10:02:22;100707.66;;;25.94;19.66
14293;BME280;62290;59.420;17.842;2023-02-23T10:04:58;100699.41;;;25.95;20.11
14293;BME280;62290;59.420;17.842;2023-02-23T10:07:33;100696.56;;;25.97;19.59
14293;BME280;62290;59.420;17.842;2023-02-23T10:10:15;100700.81;;;25.99;20.02
14293;BME280;62290;59.420;17.842;2023-02-23T10:12:54;100693.25;;;26.03;19.81
14293;BME280;62290;59.420;17.842;2023-02-23T10:15:33;100684.28;;;26.02;20.41
14293;BME280;62290;59.420;17.842;2023-02-23T10:18:11;100685.03;;;26.04;20.62
14293;BME280;62290;59.420;17.842;2023-02-23T10:20:45;100683.88;;;26.07;20.73
14293;BME280;62290;59.420;17.842;2023-02-23T10:23:22;100680.00;;;26.09;20.83
14293;BME280;62290;59.420;17.842;2023-02-23T10:25:55;100672.34;;;26.14;20.94
14293;BME280;62290;59.420;17.842;2023-02-23T10:28:25;100670.16;;;26.18;20.95
14293;BME280;62290;59.420;17.842;2023-02-23T10:30:55;100657.91;;;26.23;20.38
14293;BME280;62290;59.420;17.842;2023-02-23T10:33:30;100659.00;;;26.30;20.39
14293;BME280;62290;59.420;17.842;2023-02-23T10:36:11;100662.25;;;26.34;20.66
14293;BME280;62290;59.420;17.842;2023-02-23T10:38:42;100657.00;;;26.32;19.97
14293;BME280;62290;59.420;17.842;2023-02-23T10:41:11;100659.41;;;26.35;19.96
14293;BME280;62290;59.420;17.842;2023-02-23T10:43:41;100653.16;;;26.35;20.37
14293;BME280;62290;59.420;17.842;2023-02-23T10:46:10;100640.94;;;26.31;19.80
14293;BME280;62290;59.420;17.842;2023-02-23T10:48:44;100632.44;;;26.26;19.79
14293;BME280;62290;59.420;17.842;2023-02-23T10:51:18;100636.28;;;26.23;19.74
14293;BME280;62290;59.420;17.842;2023-02-23T10:53:48;100638.00;;;26.24;20.23
14293;BME280;62290;59.420;17.842;2023-02-23T10:56:20;100629.28;;;26.30;19.88
14293;BME280;62290;59.420;17.842;2023-02-23T10:58:51;100640.63;;;26.34;19.56
14293;BME280;62290;59.420;17.842;2023-02-23T11:01:33;100631.22;;;26.38;19.92
14293;BME280;62290;59.420;17.842;2023-02-23T11:04:16;100628.53;;;26.38;19.68
14293;BME280;62290;59.420;17.842;2023-02-23T11:06:46;100619.69;;;26.36;19.95
14293;BME280;62290;59.420;17.842;2023-02-23T11:09:23;100620.09;;;26.41;19.90
14293;BME280;62290;59.420;17.842;2023-02-23T11:12:20;100621.78;;;26.42;19.82
14293;BME280;62290;59.420;17.842;2023-02-23T11:14:52;100622.66;;;26.43;19.88
14293;BME280;62290;59.420;17.842;2023-02-23T11:17:29;100619.78;;;26.44;19.49
14293;BME280;62290;59.420;17.842;2023-02-23T11:20:00;100603.72;;;26.43;19.51
14293;BME280;62290;59.420;17.842;2023-02-23T11:22:34;100592.16;;;26.32;19.49
14293;BME280;62290;59.420;17.842;2023-02-23T11:25:13;100596.63;;;26.42;19.55
14293;BME280;62290;59.420;17.842;2023-02-23T11:27:47;100589.00;;;26.37;19.89
14293;BME280;62290;59.420;17.842;2023-02-23T11:30:19;100585.44;;;26.36;19.71
14293;BME280;62290;59.420;17.842;2023-02-23T11:32:50;100579.03;;;26.38;19.42
14293;BME280;62290;59.420;17.842;2023-02-23T11:35:28;100574.63;;;26.36;19.63
14293;BME280;62290;59.420;17.842;2023-02-23T11:37:57;100584.84;;;26.25;19.53
14293;BME280;62290;59.420;17.842;2023-02-23T11:40:27;100545.41;;;26.05;19.58
14293;BME280;62290;59.420;17.842;2023-02-23T11:43:05;100570.94;;;26.20;19.76
14293;BME280;62290;59.420;17.842;2023-02-23T11:45:38;100573.38;;;26.13;19.59
14293;BME280;62290;59.420;17.842;2023-02-23T11:48:19;100564.69;;;26.10;19.81
14293;BME280;62290;59.420;17.842;2023-02-23T11:50:49;100560.47;;;26.07;19.44
14293;BME280;62290;59.420;17.842;2023-02-23T11:53:20;100557.63;;;26.09;19.33
14293;BME280;62290;59.420;17.842;2023-02-23T11:55:57;100557.94;;;26.06;19.73
14293;BME280;62290;59.420;17.842;2023-02-23T11:58:37;100543.47;;;25.97;19.67
14293;BME280;62290;59.420;17.842;2023-02-23T12:01:07;100547.59;;;26.01;19.48
14293;BME280;62290;59.420;17.842;2023-02-23T12:03:43;100538.09;;;25.97;19.74
14293;BME280;62290;59.420;17.842;2023-02-23T12:06:24;100537.78;;;26.00;19.41
14293;BME280;62290;59.420;17.842;2023-02-23T12:09:02;100536.41;;;25.96;19.35
14293;BME280;62290;59.420;17.842;2023-02-23T12:11:36;100533.84;;;25.95;19.65
14293;BME280;62290;59.420;17.842;2023-02-23T12:14:14;100523.03;;;25.95;19.76
14293;BME280;62290;59.420;17.842;2023-02-23T12:16:49;100525.06;;;25.93;19.78
14293;BME280;62290;59.420;17.842;2023-02-23T12:19:23;100531.13;;;25.95;19.65
14293;BME280;62290;59.420;17.842;2023-02-23T12:21:59;100512.97;;;25.97;19.53
14293;BME280;62290;59.420;17.842;2023-02-23T12:24:38;100508.63;;;26.04;19.59
14293;BME280;62290;59.420;17.842;2023-02-23T12:27:11;100520.28;;;26.04;19.44
14293;BME280;62290;59.420;17.842;2023-02-23T12:29:54;100510.63;;;26.02;19.87
14293;BME280;62290;59.420;17.842;2023-02-23T12:32:27;100511.06;;;25.97;19.90
14293;BME280;62290;59.420;17.842;2023-02-23T12:35:01;100508.16;;;25.91;19.67
14293;BME280;62290;59.420;17.842;2023-02-23T12:37:36;100510.63;;;25.84;20.28
14293;BME280;62290;59.420;17.842;2023-02-23T12:40:14;100512.63;;;25.82;20.27
14293;BME280;62290;59.420;17.842;2023-02-23T12:42:51;100507.38;;;25.81;19.78
14293;BME280;62290;59.420;17.842;2023-02-23T12:45:27;100499.69;;;25.86;20.18
14293;BME280;62290;59.420;17.842;2023-02-23T12:48:03;100496.50;;;25.90;19.82
14293;BME280;62290;59.420;17.842;2023-02-23T12:50:37;100495.19;;;25.94;19.82
14293;BME280;62290;59.420;17.842;2023-02-23T12:53:17;100495.44;;;26.01;19.65
14293;BME280;62290;59.420;17.842;2023-02-23T12:55:57;100488.56;;;26.06;20.01
14293;BME280;62290;59.420;17.842;2023-02-23T12:58:38;100489.09;;;26.10;19.79
14293;BME280;62290;59.420;17.842;2023-02-23T13:01:11;100482.69;;;26.11;19.90
14293;BME280;62290;59.420;17.842;2023-02-23T13:03:53;100481.69;;;26.12;19.83
14293;BME280;62290;59.420;17.842;2023-02-23T13:06:32;100471.03;;;26.10;20.10
14293;BME280;62290;59.420;17.842;2023-02-23T13:09:11;100461.69;;;26.05;20.06
14293;BME280;62290;59.420;17.842;2023-02-23T13:12:03;100462.16;;;26.00;20.09
14293;BME280;62290;59.420;17.842;2023-02-23T13:14:37;100453.69;;;25.95;20.19
14293;BME280;62290;59.420;17.842;2023-02-23T13:17:23;100445.59;;;25.95;20.39